WetterOnline ( https://www.wetteronline.de )

Wetter aktuell Wetzlar

Aktuelles Wetter: Gießen (195m)

6-stündlich | Neueste Meldungen
Ortszeit Temperatur Wetter
Di, 27.09. 8:00 8.7° C bewölkt
Di, 27.09. 2:00 10.0° C bewölkt
Mo, 26.09. 20:00 11.2° C Sprühregen
Mo, 26.09. 14:00 12.8° C bewölkt
Mo, 26.09. 8:00 6.6° C Nebel
Mo, 26.09. 2:00 6.3° C Nebel
So, 25.09. 20:00 11.9° C bedeckt
So, 25.09. 14:00 13.0° C bedeckt
Ortszeit Temperatur Wetter
Di, 27.09. 13:30 10.9° C bedeckt
Di, 27.09. 13:20 10.9° C Sprühregen
Di, 27.09. 13:10 10.9° C bedeckt
Di, 27.09. 13:00 10.8° C bedeckt
Di, 27.09. 12:50 10.8° C bedeckt
Di, 27.09. 12:40 11.0° C bedeckt
Di, 27.09. 12:30 10.6° C bewölkt
Di, 27.09. 12:00 10.3° C bewölkt
Di, 27.09. 11:30 10.2° C bewölkt
Di, 27.09. 11:00 9.7° C bewölkt
Di, 27.09. 10:30 9.5° C Sprühregen
Ortszeit Relative Feuchte Sichtweite
Di, 27.09. 8:00 97% 35 km
Di, 27.09. 2:00 95% 65 km
Mo, 26.09. 20:00 80% 50 km
Mo, 26.09. 14:00 68% 55 km
Mo, 26.09. 8:00 99% 3.0 km
Mo, 26.09. 2:00 99% 6 km
So, 25.09. 20:00 91% 30 km
So, 25.09. 14:00 84% 40 km
Ortszeit Relative Feuchte Sichtweite
Di, 27.09. 13:30 76% 55 km
Di, 27.09. 13:20 76% -
Di, 27.09. 13:10 74% -
Di, 27.09. 13:00 75% 65 km
Di, 27.09. 12:50 75% -
Di, 27.09. 12:40 76% -
Di, 27.09. 12:30 78% 65 km
Di, 27.09. 12:00 82% 50 km
Di, 27.09. 11:30 83% 45 km
Di, 27.09. 11:00 87% 50 km
Di, 27.09. 10:30 89% 40 km
Ortszeit Niederschlagsmenge Niederschlagsart
Di, 27.09. 8:00 8 l/m2 in 12 Std. Regen
Di, 27.09. 2:00 5 l/m2 in 6 Std. Regen
Mo, 26.09. 20:00 0.2 l/m2 in 12 Std. Regen
Mo, 26.09. 14:00 0.0 l/m2 in 6 Std. -
Mo, 26.09. 8:00 0.0 l/m2 in 12 Std. -
Mo, 26.09. 2:00 0.0 l/m2 in 6 Std. -
So, 25.09. 20:00 0.1 l/m2 in 12 Std. Regen
So, 25.09. 14:00 0.1 l/m2 in 6 Std. Regen
Ortszeit Niederschlagsmenge Niederschlagsart
Di, 27.09. 13:30 <0.05 l/m2 in 1 Std. Schneeregen
Di, 27.09. 13:20 keine Meldung -
Di, 27.09. 13:10 keine Meldung -
Di, 27.09. 13:00 0.0 l/m2 in 1 Std. -
Di, 27.09. 12:50 keine Meldung -
Di, 27.09. 12:40 keine Meldung -
Di, 27.09. 12:30 0.0 l/m2 in 1 Std. -
Di, 27.09. 12:00 <0.05 l/m2 in 1 Std. Sprühregen
Di, 27.09. 11:30 <0.05 l/m2 in 1 Std. Schnee
Di, 27.09. 11:00 <0.05 l/m2 in 1 Std. Regen
Di, 27.09. 10:30 <0.05 l/m2 in 1 Std. -
Ortszeit Stärke Spitze Richtung
km/h Bft. km/h Grad Sektor
Di, 27.09. 8:00 17 3 35 230° SW
Di, 27.09. 2:00 11 2 29 200° S
Mo, 26.09. 20:00 20 4 43 200° S
Mo, 26.09. 14:00 32 5 47 230° SW
Mo, 26.09. 8:00 4 1 14 200° S
Mo, 26.09. 2:00 6 1 13 220° SW
So, 25.09. 20:00 7 2 22 240° SW
So, 25.09. 14:00 9 2 22 340° N
Ortszeit Stärke Spitze Richtung
km/h Bft. km/h Grad Sektor
Di, 27.09. 13:30 22 4 32 230° SW
Di, 27.09. 13:20 22 4 - 230° SW
Di, 27.09. 13:10 20 4 - 230° SW
Di, 27.09. 13:00 18 3 32 230° SW
Di, 27.09. 12:50 18 3 - 230° SW
Di, 27.09. 12:40 22 4 - 230° SW
Di, 27.09. 12:30 20 4 33 240° SW
Di, 27.09. 12:00 18 3 32 220° SW
Di, 27.09. 11:30 22 4 32 240° SW
Di, 27.09. 11:00 18 3 32 240° SW
Di, 27.09. 10:30 24 4 31 220° SW
Ortszeit Untergrenze Bedeckung Gattung
total tief tief mittel hoch
Di, 27.09. 8:00 660 m 8/8 7/8 - - -
Di, 27.09. 2:00 300 m 7/8 7/8 - - -
Mo, 26.09. 20:00 1140 m 7/8 7/8 - - -
Mo, 26.09. 14:00 990 m 8/8 7/8 - - -
Mo, 26.09. 8:00 30 m 8/8 8/8 - - -
Mo, 26.09. 2:00 - 0/8 0/8 - - -
So, 25.09. 20:00 3300 m 8/8 8/8 - - -
So, 25.09. 14:00 420 m 8/8 8/8 - - -
Ortszeit Bedeckungsgrad in Achtel und Wolkenuntergrenze
Di, 27.09. 13:30 1(750m) 8(1230m)
Di, 27.09. 13:20 1(750m) 2(900m) 8(1230m)
Di, 27.09. 13:10 8
Di, 27.09. 13:00 3(690m) 7(1080m) 8(1380m)
Di, 27.09. 12:50 3(690m) 7(1080m) 8(1380m)
Di, 27.09. 12:40 8
Di, 27.09. 12:30 2(630m) 7(870m) 7(1080m)
Di, 27.09. 12:00 4(570m) 8(3300m) 8(4800m)
Di, 27.09. 11:30 6(810m) 8(4800m) 8(6000m)
Di, 27.09. 11:00 6(660m) 7(1080m) 8(5100m)
Di, 27.09. 10:30 3(780m) 7(1350m) 7(4200m)
Ortszeit Luftdruck NN (hPa) Tendenz (hPa in 3 Std.)
Di, 27.09. 8:00 997 + 1,5
Di, 27.09. 2:00 996 - 2,1
Mo, 26.09. 20:00 1000 - 1,8
Mo, 26.09. 14:00 1004 - 1,5
Mo, 26.09. 8:00 1008 - 2,1
Mo, 26.09. 2:00 1012 - 0,6
So, 25.09. 20:00 1012 - 0,3
So, 25.09. 14:00 1013 - 0,1
Ortszeit Luftdruck NN (hPa) Tendenz (hPa in 3 Std.)
Di, 27.09. 13:30 999 + 0,3
Di, 27.09. 13:20 999 keine Meldung
Di, 27.09. 13:10 999 keine Meldung
Di, 27.09. 13:00 999 + 0,5
Di, 27.09. 12:50 999 keine Meldung
Di, 27.09. 12:40 999 keine Meldung
Di, 27.09. 12:30 999 + 1,2
Di, 27.09. 12:00 999 + 1,6
Di, 27.09. 11:30 1000 + 1,7
Di, 27.09. 11:00 999 + 2,0
Di, 27.09. 10:30 999 + 1,9
Ortszeit Schneehöhe (cm)
Di, 27.09. 8:00 0
Di, 27.09. 2:00 0
Mo, 26.09. 20:00 0
Mo, 26.09. 14:00 0
Mo, 26.09. 8:00 0
Mo, 26.09. 2:00 0
So, 25.09. 20:00 0
So, 25.09. 14:00 0
Ortszeit Schneehöhe (cm)
Di, 27.09. 13:30 0
Di, 27.09. 13:20 0
Di, 27.09. 13:10 0
Di, 27.09. 13:00 0
Di, 27.09. 12:50 0
Di, 27.09. 12:40 0
Di, 27.09. 12:30 0
Di, 27.09. 12:00 0
Di, 27.09. 11:30 0
Di, 27.09. 11:00 0
Di, 27.09. 10:30 0
Link zu dieser Seite / Seite empfehlen

Das Wetter in ...